sensor_id;sensor_type;location;lat;lon;timestamp;pressure;altitude;pressure_sealevel;temperature;humidity
1480;BME280;732;51.698;4.886;2023-03-13T00:01:33;100348.03;;;6.31;80.69
1480;BME280;732;51.698;4.886;2023-03-13T00:04:02;100283.28;;;5.90;81.05
1480;BME280;732;51.698;4.886;2023-03-13T00:06:34;100301.59;;;6.01;82.35
1480;BME280;732;51.698;4.886;2023-03-13T00:09:05;100324.06;;;6.07;83.15
1480;BME280;732;51.698;4.886;2023-03-13T00:11:34;100314.44;;;6.06;83.52
1480;BME280;732;51.698;4.886;2023-03-13T00:14:05;100311.25;;;6.10;82.76
1480;BME280;732;51.698;4.886;2023-03-13T00:16:34;100285.63;;;5.84;83.63
1480;BME280;732;51.698;4.886;2023-03-13T00:19:04;100248.50;;;5.75;83.97
1480;BME280;732;51.698;4.886;2023-03-13T00:21:33;100280.97;;;5.95;84.42
1480;BME280;732;51.698;4.886;2023-03-13T00:24:03;100268.47;;;5.95;84.32
1480;BME280;732;51.698;4.886;2023-03-13T00:26:32;100250.66;;;6.04;83.78
1480;BME280;732;51.698;4.886;2023-03-13T00:29:02;100240.84;;;5.96;84.06
1480;BME280;732;51.698;4.886;2023-03-13T00:31:31;100253.00;;;6.07;84.21
1480;BME280;732;51.698;4.886;2023-03-13T00:34:01;100246.16;;;6.13;84.17
1480;BME280;732;51.698;4.886;2023-03-13T00:36:32;100234.53;;;5.97;84.76
1480;BME280;732;51.698;4.886;2023-03-13T00:39:02;100230.19;;;5.96;85.17
1480;BME280;732;51.698;4.886;2023-03-13T00:41:36;100227.03;;;5.93;85.17
1480;BME280;732;51.698;4.886;2023-03-13T00:44:06;100231.50;;;6.00;85.38
1480;BME280;732;51.698;4.886;2023-03-13T00:46:35;100212.72;;;5.94;85.64
1480;BME280;732;51.698;4.886;2023-03-13T00:49:04;100193.09;;;5.86;86.00
1480;BME280;732;51.698;4.886;2023-03-13T00:51:33;100188.91;;;6.00;85.82
1480;BME280;732;51.698;4.886;2023-03-13T00:54:01;100203.22;;;6.16;85.24
1480;BME280;732;51.698;4.886;2023-03-13T00:56:32;100189.41;;;6.04;85.46
1480;BME280;732;51.698;4.886;2023-03-13T00:59:00;100182.25;;;6.04;86.16
1480;BME280;732;51.698;4.886;2023-03-13T01:01:33;100193.50;;;6.31;85.69
1480;BME280;732;51.698;4.886;2023-03-13T01:04:04;100173.56;;;6.27;85.43
1480;BME280;732;51.698;4.886;2023-03-13T01:06:36;100158.75;;;6.16;85.59
1480;BME280;732;51.698;4.886;2023-03-13T01:09:06;100171.75;;;6.19;86.19
1480;BME280;732;51.698;4.886;2023-03-13T01:11:37;100181.38;;;6.37;85.96
1480;BME280;732;51.698;4.886;2023-03-13T01:14:08;100159.75;;;6.24;86.28
1480;BME280;732;51.698;4.886;2023-03-13T01:16:39;100168.88;;;6.38;86.21
1480;BME280;732;51.698;4.886;2023-03-13T01:19:10;100150.25;;;6.21;87.02
1480;BME280;732;51.698;4.886;2023-03-13T01:21:40;100156.22;;;6.40;86.09
1480;BME280;732;51.698;4.886;2023-03-13T01:24:09;100146.19;;;6.42;86.44
1480;BME280;732;51.698;4.886;2023-03-13T01:26:37;100115.75;;;6.44;86.42
1480;BME280;732;51.698;4.886;2023-03-13T01:29:06;100135.53;;;6.50;86.41
1480;BME280;732;51.698;4.886;2023-03-13T01:31:35;100108.13;;;6.25;86.93
1480;BME280;732;51.698;4.886;2023-03-13T01:34:09;100087.81;;;6.24;87.23
1480;BME280;732;51.698;4.886;2023-03-13T01:36:38;100118.56;;;6.43;87.16
1480;BME280;732;51.698;4.886;2023-03-13T01:39:06;100100.91;;;6.42;87.23
1480;BME280;732;51.698;4.886;2023-03-13T01:41:36;100089.09;;;6.44;86.97
1480;BME280;732;51.698;4.886;2023-03-13T01:44:08;100103.69;;;6.57;86.93
1480;BME280;732;51.698;4.886;2023-03-13T01:46:45;100095.84;;;6.55;87.60
1480;BME280;732;51.698;4.886;2023-03-13T01:49:23;100089.53;;;6.56;87.30
1480;BME280;732;51.698;4.886;2023-03-13T01:52:17;100066.38;;;6.57;86.83
1480;BME280;732;51.698;4.886;2023-03-13T01:54:56;100054.69;;;6.58;87.38
1480;BME280;732;51.698;4.886;2023-03-13T01:57:29;100060.78;;;6.66;87.59
1480;BME280;732;51.698;4.886;2023-03-13T02:00:04;100053.22;;;6.78;87.01
1480;BME280;732;51.698;4.886;2023-03-13T02:02:45;100043.94;;;6.74;87.62
1480;BME280;732;51.698;4.886;2023-03-13T02:05:16;99981.84;;;6.42;87.43
1480;BME280;732;51.698;4.886;2023-03-13T02:07:49;100013.97;;;6.72;87.28
1480;BME280;732;51.698;4.886;2023-03-13T02:10:21;99998.06;;;6.79;87.25
1480;BME280;732;51.698;4.886;2023-03-13T02:12:51;100019.69;;;6.84;87.25
1480;BME280;732;51.698;4.886;2023-03-13T02:15:23;99993.88;;;6.84;87.25
1480;BME280;732;51.698;4.886;2023-03-13T02:17:54;99998.25;;;7.00;87.03
1480;BME280;732;51.698;4.886;2023-03-13T02:20:25;99996.66;;;7.06;86.85
1480;BME280;732;51.698;4.886;2023-03-13T02:22:58;99993.81;;;7.08;86.91
1480;BME280;732;51.698;4.886;2023-03-13T02:25:40;99985.19;;;7.06;86.78
1480;BME280;732;51.698;4.886;2023-03-13T02:28:12;99975.91;;;7.02;87.07
1480;BME280;732;51.698;4.886;2023-03-13T02:30:43;99991.28;;;7.14;86.80
1480;BME280;732;51.698;4.886;2023-03-13T02:33:14;100004.69;;;7.21;87.10
1480;BME280;732;51.698;4.886;2023-03-13T02:35:45;100008.03;;;7.23;87.40
1480;BME280;732;51.698;4.886;2023-03-13T02:38:22;99996.81;;;7.28;86.90
1480;BME280;732;51.698;4.886;2023-03-13T02:40:53;99982.44;;;7.29;86.89
1480;BME280;732;51.698;4.886;2023-03-13T02:43:28;99971.59;;;7.30;86.35
1480;BME280;732;51.698;4.886;2023-03-13T02:46:04;99988.16;;;7.41;86.59
1480;BME280;732;51.698;4.886;2023-03-13T02:48:37;99982.09;;;7.47;86.16
1480;BME280;732;51.698;4.886;2023-03-13T02:51:16;99964.16;;;7.41;86.21
1480;BME280;732;51.698;4.886;2023-03-13T02:53:47;99984.03;;;7.53;86.15
1480;BME280;732;51.698;4.886;2023-03-13T02:56:21;99988.09;;;7.49;86.08
1480;BME280;732;51.698;4.886;2023-03-13T02:58:50;99916.03;;;7.19;86.22
1480;BME280;732;51.698;4.886;2023-03-13T03:01:22;99972.25;;;7.47;86.07
1480;BME280;732;51.698;4.886;2023-03-13T03:03:51;99987.97;;;7.72;85.80
1480;BME280;732;51.698;4.886;2023-03-13T03:06:19;99962.41;;;7.63;85.71
1480;BME280;732;51.698;4.886;2023-03-13T03:08:54;99978.22;;;7.79;85.87
1480;BME280;732;51.698;4.886;2023-03-13T03:11:25;99979.63;;;7.75;85.90
1480;BME280;732;51.698;4.886;2023-03-13T03:14:01;99969.19;;;7.80;86.54
1480;BME280;732;51.698;4.886;2023-03-13T03:16:34;99971.88;;;7.80;86.27
1480;BME280;732;51.698;4.886;2023-03-13T03:19:05;99977.03;;;7.82;86.79
1480;BME280;732;51.698;4.886;2023-03-13T03:21:34;99967.94;;;7.76;86.54
1480;BME280;732;51.698;4.886;2023-03-13T03:24:03;99970.75;;;7.75;86.95
1480;BME280;732;51.698;4.886;2023-03-13T03:26:33;99964.69;;;7.66;87.10
1480;BME280;732;51.698;4.886;2023-03-13T03:29:05;99969.00;;;7.82;86.90
1480;BME280;732;51.698;4.886;2023-03-13T03:31:35;99967.34;;;7.81;86.64
1480;BME280;732;51.698;4.886;2023-03-13T03:34:03;99966.13;;;7.84;86.74
1480;BME280;732;51.698;4.886;2023-03-13T03:36:32;99960.00;;;7.83;86.19
1480;BME280;732;51.698;4.886;2023-03-13T03:39:00;99971.00;;;7.95;85.97
1480;BME280;732;51.698;4.886;2023-03-13T03:41:30;99965.84;;;7.93;86.33
1480;BME280;732;51.698;4.886;2023-03-13T03:44:00;99965.22;;;7.91;86.46
1480;BME280;732;51.698;4.886;2023-03-13T03:46:39;99968.00;;;7.98;86.21
1480;BME280;732;51.698;4.886;2023-03-13T03:49:07;99970.47;;;8.00;86.23
1480;BME280;732;51.698;4.886;2023-03-13T03:51:36;99948.00;;;7.94;86.01
1480;BME280;732;51.698;4.886;2023-03-13T03:54:05;99945.88;;;8.04;85.81
1480;BME280;732;51.698;4.886;2023-03-13T03:56:33;99951.22;;;8.04;85.92
1480;BME280;732;51.698;4.886;2023-03-13T03:59:03;99942.06;;;8.13;85.71
1480;BME280;732;51.698;4.886;2023-03-13T04:01:40;99933.69;;;8.17;85.41
1480;BME280;732;51.698;4.886;2023-03-13T04:04:11;99918.88;;;8.14;85.29
1480;BME280;732;51.698;4.886;2023-03-13T04:06:42;99934.75;;;8.22;85.09
1480;BME280;732;51.698;4.886;2023-03-13T04:09:11;99918.66;;;8.16;84.65
1480;BME280;732;51.698;4.886;2023-03-13T04:11:39;99925.72;;;8.23;84.75
1480;BME280;732;51.698;4.886;2023-03-13T04:14:10;99926.38;;;8.25;84.41
1480;BME280;732;51.698;4.886;2023-03-13T04:16:39;99926.25;;;8.34;84.11
1480;BME280;732;51.698;4.886;2023-03-13T04:19:08;99920.28;;;8.32;83.90
1480;BME280;732;51.698;4.886;2023-03-13T04:21:37;99912.75;;;8.20;84.10
1480;BME280;732;51.698;4.886;2023-03-13T04:24:14;99905.38;;;8.22;83.89
1480;BME280;732;51.698;4.886;2023-03-13T04:26:44;99906.06;;;8.31;83.64
1480;BME280;732;51.698;4.886;2023-03-13T04:29:15;99880.50;;;8.22;83.72
1480;BME280;732;51.698;4.886;2023-03-13T04:32:11;99887.81;;;8.35;82.97
1480;BME280;732;51.698;4.886;2023-03-13T04:34:57;99901.09;;;8.50;82.84
1480;BME280;732;51.698;4.886;2023-03-13T04:37:35;99892.81;;;8.44;82.49
1480;BME280;732;51.698;4.886;2023-03-13T04:40:22;99888.78;;;8.49;82.38
1480;BME280;732;51.698;4.886;2023-03-13T04:42:50;99880.75;;;8.49;81.99
1480;BME280;732;51.698;4.886;2023-03-13T04:45:38;99883.91;;;8.59;81.72
1480;BME280;732;51.698;4.886;2023-03-13T04:48:27;99883.47;;;8.55;81.60
1480;BME280;732;51.698;4.886;2023-03-13T04:51:14;99883.91;;;8.59;81.18
1480;BME280;732;51.698;4.886;2023-03-13T04:53:51;99875.31;;;8.64;80.73
1480;BME280;732;51.698;4.886;2023-03-13T04:56:44;99864.19;;;8.60;80.68
1480;BME280;732;51.698;4.886;2023-03-13T04:59:33;99874.09;;;8.66;80.81
1480;BME280;732;51.698;4.886;2023-03-13T05:02:25;99873.91;;;8.68;80.69
1480;BME280;732;51.698;4.886;2023-03-13T05:05:29;99873.69;;;8.69;80.74
1480;BME280;732;51.698;4.886;2023-03-13T05:08:20;99843.75;;;8.52;81.02
1480;BME280;732;51.698;4.886;2023-03-13T05:10:58;99856.84;;;8.69;80.63
1480;BME280;732;51.698;4.886;2023-03-13T05:13:52;99827.31;;;8.55;80.15
1480;BME280;732;51.698;4.886;2023-03-13T05:16:47;99848.19;;;8.67;79.80
1480;BME280;732;51.698;4.886;2023-03-13T05:19:50;99824.09;;;8.67;80.11
1480;BME280;732;51.698;4.886;2023-03-13T05:22:54;99837.69;;;8.65;79.82
1480;BME280;732;51.698;4.886;2023-03-13T05:25:55;99845.13;;;8.70;79.93
1480;BME280;732;51.698;4.886;2023-03-13T05:28:42;99851.53;;;8.75;79.57
1480;BME280;732;51.698;4.886;2023-03-13T05:31:36;99850.72;;;8.75;78.92
1480;BME280;732;51.698;4.886;2023-03-13T05:34:31;99850.31;;;8.78;78.83
1480;BME280;732;51.698;4.886;2023-03-13T05:37:14;99839.56;;;8.71;78.63
1480;BME280;732;51.698;4.886;2023-03-13T05:40:01;99814.41;;;8.59;78.98
1480;BME280;732;51.698;4.886;2023-03-13T05:42:44;99847.94;;;8.90;78.08
1480;BME280;732;51.698;4.886;2023-03-13T05:45:28;99819.56;;;8.67;78.02
1480;BME280;732;51.698;4.886;2023-03-13T05:48:29;99824.81;;;8.82;77.98
1480;BME280;732;51.698;4.886;2023-03-13T05:51:24;99820.63;;;8.66;78.37
1480;BME280;732;51.698;4.886;2023-03-13T05:54:04;99846.66;;;8.86;78.10
1480;BME280;732;51.698;4.886;2023-03-13T05:56:56;99834.72;;;8.88;77.85
1480;BME280;732;51.698;4.886;2023-03-13T05:59:41;99825.88;;;8.88;77.64
1480;BME280;732;51.698;4.886;2023-03-13T06:02:32;99824.63;;;8.84;77.69
1480;BME280;732;51.698;4.886;2023-03-13T06:05:03;99836.38;;;8.89;77.86
1480;BME280;732;51.698;4.886;2023-03-13T06:07:32;99833.81;;;8.74;77.59
1480;BME280;732;51.698;4.886;2023-03-13T06:10:02;99770.53;;;8.53;77.64
1480;BME280;732;51.698;4.886;2023-03-13T06:12:31;99816.41;;;8.85;77.06
1480;BME280;732;51.698;4.886;2023-03-13T06:15:00;99828.13;;;8.84;76.71
1480;BME280;732;51.698;4.886;2023-03-13T06:18:00;99784.44;;;8.70;76.87
1480;BME280;732;51.698;4.886;2023-03-13T06:20:29;99810.03;;;8.86;76.72
1480;BME280;732;51.698;4.886;2023-03-13T06:22:57;99817.66;;;8.89;76.27
1480;BME280;732;51.698;4.886;2023-03-13T06:25:27;99830.66;;;8.92;76.27
1480;BME280;732;51.698;4.886;2023-03-13T06:27:56;99818.09;;;8.93;76.26
1480;BME280;732;51.698;4.886;2023-03-13T06:30:25;99824.94;;;9.02;75.93
1480;BME280;732;51.698;4.886;2023-03-13T06:32:53;99834.00;;;9.01;76.15
1480;BME280;732;51.698;4.886;2023-03-13T06:35:22;99818.31;;;8.91;76.07
1480;BME280;732;51.698;4.886;2023-03-13T06:37:51;99838.50;;;9.01;75.88
1480;BME280;732;51.698;4.886;2023-03-13T06:40:19;99835.00;;;9.00;76.27
1480;BME280;732;51.698;4.886;2023-03-13T06:42:49;99831.53;;;9.00;75.94
1480;BME280;732;51.698;4.886;2023-03-13T06:45:18;99831.31;;;9.01;76.05
1480;BME280;732;51.698;4.886;2023-03-13T06:47:46;99813.19;;;8.97;76.03
1480;BME280;732;51.698;4.886;2023-03-13T06:50:17;99796.81;;;8.78;75.97
1480;BME280;732;51.698;4.886;2023-03-13T06:52:46;99816.50;;;8.99;75.98
1480;BME280;732;51.698;4.886;2023-03-13T06:55:15;99833.44;;;9.13;75.86
1480;BME280;732;51.698;4.886;2023-03-13T06:57:43;99831.78;;;9.11;75.81
1480;BME280;732;51.698;4.886;2023-03-13T07:00:14;99812.63;;;9.08;76.11
1480;BME280;732;51.698;4.886;2023-03-13T07:02:43;99823.53;;;9.13;75.96
1480;BME280;732;51.698;4.886;2023-03-13T07:05:12;99812.41;;;9.09;76.17
1480;BME280;732;51.698;4.886;2023-03-13T07:07:40;99824.09;;;9.02;76.27
1480;BME280;732;51.698;4.886;2023-03-13T07:10:10;99825.63;;;9.11;76.77
1480;BME280;732;51.698;4.886;2023-03-13T07:12:39;99827.28;;;9.19;76.32
1480;BME280;732;51.698;4.886;2023-03-13T07:15:08;99828.09;;;9.13;76.70
1480;BME280;732;51.698;4.886;2023-03-13T07:17:38;99817.31;;;8.99;76.60
1480;BME280;732;51.698;4.886;2023-03-13T07:20:09;99810.06;;;8.93;76.37
1480;BME280;732;51.698;4.886;2023-03-13T07:22:38;99836.06;;;9.06;76.43
1480;BME280;732;51.698;4.886;2023-03-13T07:25:08;99831.41;;;9.15;76.54
1480;BME280;732;51.698;4.886;2023-03-13T07:27:37;99839.81;;;9.11;77.04
1480;BME280;732;51.698;4.886;2023-03-13T07:30:06;99805.13;;;8.90;76.95
1480;BME280;732;51.698;4.886;2023-03-13T07:32:35;99835.03;;;9.07;77.09
1480;BME280;732;51.698;4.886;2023-03-13T07:35:06;99821.88;;;9.05;77.02
1480;BME280;732;51.698;4.886;2023-03-13T07:37:35;99823.53;;;9.06;77.30
1480;BME280;732;51.698;4.886;2023-03-13T07:40:04;99826.22;;;9.13;77.28
1480;BME280;732;51.698;4.886;2023-03-13T07:42:35;99824.56;;;9.12;76.76
1480;BME280;732;51.698;4.886;2023-03-13T07:45:04;99811.44;;;9.17;76.80
1480;BME280;732;51.698;4.886;2023-03-13T07:47:33;99819.91;;;9.21;76.72
1480;BME280;732;51.698;4.886;2023-03-13T07:50:02;99804.78;;;9.06;76.79
1480;BME280;732;51.698;4.886;2023-03-13T07:52:33;99828.38;;;9.31;76.89
1480;BME280;732;51.698;4.886;2023-03-13T07:55:01;99836.88;;;9.41;76.26
1480;BME280;732;51.698;4.886;2023-03-13T07:57:30;99805.47;;;9.22;76.48
1480;BME280;732;51.698;4.886;2023-03-13T07:59:58;99832.88;;;9.31;77.21
1480;BME280;732;51.698;4.886;2023-03-13T08:02:27;99832.06;;;9.23;77.51
1480;BME280;732;51.698;4.886;2023-03-13T08:04:56;99843.16;;;9.27;77.45
1480;BME280;732;51.698;4.886;2023-03-13T08:07:25;99823.97;;;9.17;78.18
1480;BME280;732;51.698;4.886;2023-03-13T08:09:55;99839.81;;;9.18;78.67
1480;BME280;732;51.698;4.886;2023-03-13T08:12:23;99850.13;;;9.15;78.76
1480;BME280;732;51.698;4.886;2023-03-13T08:14:51;99841.09;;;9.22;78.56
1480;BME280;732;51.698;4.886;2023-03-13T08:17:20;99830.97;;;9.11;78.39
1480;BME280;732;51.698;4.886;2023-03-13T08:19:48;99817.75;;;9.03;78.14
1480;BME280;732;51.698;4.886;2023-03-13T08:22:17;99801.09;;;9.07;77.40
1480;BME280;732;51.698;4.886;2023-03-13T08:24:45;99814.22;;;9.37;76.08
1480;BME280;732;51.698;4.886;2023-03-13T08:27:16;99788.44;;;9.36;75.16
1480;BME280;732;51.698;4.886;2023-03-13T08:29:44;99813.91;;;9.67;74.68
1480;BME280;732;51.698;4.886;2023-03-13T08:32:13;99797.63;;;9.75;74.26
1480;BME280;732;51.698;4.886;2023-03-13T08:34:41;99805.69;;;9.89;72.87
1480;BME280;732;51.698;4.886;2023-03-13T08:37:14;99795.41;;;10.13;72.97
1480;BME280;732;51.698;4.886;2023-03-13T08:39:43;99805.91;;;10.07;71.87
1480;BME280;732;51.698;4.886;2023-03-13T08:42:12;99794.56;;;10.05;71.39
1480;BME280;732;51.698;4.886;2023-03-13T08:44:42;99779.53;;;10.18;70.88
1480;BME280;732;51.698;4.886;2023-03-13T08:47:10;99769.22;;;10.28;70.87
1480;BME280;732;51.698;4.886;2023-03-13T08:49:39;99758.69;;;10.40;69.36
1480;BME280;732;51.698;4.886;2023-03-13T08:52:08;99783.66;;;10.40;68.92
1480;BME280;732;51.698;4.886;2023-03-13T08:54:36;99766.56;;;10.28;69.72
1480;BME280;732;51.698;4.886;2023-03-13T08:57:05;99758.28;;;10.23;69.56
1480;BME280;732;51.698;4.886;2023-03-13T08:59:33;99741.97;;;10.45;69.53
1480;BME280;732;51.698;4.886;2023-03-13T09:02:03;99760.31;;;10.75;69.47
1480;BME280;732;51.698;4.886;2023-03-13T09:04:32;99774.72;;;10.87;68.65
1480;BME280;732;51.698;4.886;2023-03-13T09:07:00;99770.75;;;11.03;68.42
1480;BME280;732;51.698;4.886;2023-03-13T09:09:29;99759.91;;;11.23;68.58
1480;BME280;732;51.698;4.886;2023-03-13T09:11:57;99762.72;;;11.42;67.50
1480;BME280;732;51.698;4.886;2023-03-13T09:14:26;99758.09;;;11.56;66.64
1480;BME280;732;51.698;4.886;2023-03-13T09:16:54;99715.25;;;11.35;66.29
1480;BME280;732;51.698;4.886;2023-03-13T09:19:25;99753.28;;;11.64;66.40
1480;BME280;732;51.698;4.886;2023-03-13T09:21:53;99725.97;;;11.35;66.53
1480;BME280;732;51.698;4.886;2023-03-13T09:24:22;99742.88;;;11.43;66.82
1480;BME280;732;51.698;4.886;2023-03-13T09:26:50;99724.91;;;11.43;67.01
1480;BME280;732;51.698;4.886;2023-03-13T09:29:27;99727.28;;;11.58;66.12
1480;BME280;732;51.698;4.886;2023-03-13T09:31:56;99721.66;;;11.66;65.87
1480;BME280;732;51.698;4.886;2023-03-13T09:34:25;99736.69;;;11.74;65.44
1480;BME280;732;51.698;4.886;2023-03-13T09:36:54;99744.41;;;11.64;65.91
1480;BME280;732;51.698;4.886;2023-03-13T09:39:22;99701.34;;;11.45;66.20
1480;BME280;732;51.698;4.886;2023-03-13T09:41:58;99726.28;;;11.52;66.20
1480;BME280;732;51.698;4.886;2023-03-13T09:44:38;99723.66;;;11.71;65.97
1480;BME280;732;51.698;4.886;2023-03-13T09:47:16;99714.34;;;11.74;66.57
1480;BME280;732;51.698;4.886;2023-03-13T09:49:53;99723.41;;;11.79;65.62
1480;BME280;732;51.698;4.886;2023-03-13T09:52:26;99703.72;;;11.60;64.44
1480;BME280;732;51.698;4.886;2023-03-13T09:54:59;99722.13;;;11.57;64.86
1480;BME280;732;51.698;4.886;2023-03-13T09:57:34;99712.25;;;11.50;64.92
1480;BME280;732;51.698;4.886;2023-03-13T10:00:07;99689.50;;;11.53;64.82
1480;BME280;732;51.698;4.886;2023-03-13T10:02:44;99693.06;;;11.72;64.50
1480;BME280;732;51.698;4.886;2023-03-13T10:05:19;99711.16;;;11.90;64.37
1480;BME280;732;51.698;4.886;2023-03-13T10:07:48;99717.81;;;11.81;63.96
1480;BME280;732;51.698;4.886;2023-03-13T10:10:20;99688.97;;;11.69;62.45
1480;BME280;732;51.698;4.886;2023-03-13T10:13:00;99699.97;;;11.93;62.07
1480;BME280;732;51.698;4.886;2023-03-13T10:15:37;99699.34;;;11.91;60.13
1480;BME280;732;51.698;4.886;2023-03-13T10:18:17;99696.41;;;11.67;60.21
1480;BME280;732;51.698;4.886;2023-03-13T10:20:51;99685.97;;;11.52;60.05
1480;BME280;732;51.698;4.886;2023-03-13T10:23:26;99703.53;;;11.55;60.02
1480;BME280;732;51.698;4.886;2023-03-13T10:26:00;99692.34;;;11.58;61.09
1480;BME280;732;51.698;4.886;2023-03-13T10:28:28;99687.53;;;11.42;61.38
1480;BME280;732;51.698;4.886;2023-03-13T10:31:01;99710.25;;;11.39;62.15
1480;BME280;732;51.698;4.886;2023-03-13T10:33:34;99700.31;;;11.40;61.15
1480;BME280;732;51.698;4.886;2023-03-13T10:36:08;99675.50;;;11.44;60.77
1480;BME280;732;51.698;4.886;2023-03-13T10:38:48;99653.56;;;11.47;61.05
1480;BME280;732;51.698;4.886;2023-03-13T10:41:26;99667.84;;;11.48;60.33
1480;BME280;732;51.698;4.886;2023-03-13T10:44:00;99653.75;;;11.78;60.38
1480;BME280;732;51.698;4.886;2023-03-13T10:46:33;99641.47;;;11.89;61.09
1480;BME280;732;51.698;4.886;2023-03-13T10:49:04;99667.19;;;12.03;60.79
1480;BME280;732;51.698;4.886;2023-03-13T10:51:47;99624.00;;;11.54;61.44
1480;BME280;732;51.698;4.886;2023-03-13T10:54:23;99652.28;;;11.57;62.10
1480;BME280;732;51.698;4.886;2023-03-13T10:57:08;99640.09;;;11.79;61.93
1480;BME280;732;51.698;4.886;2023-03-13T10:59:40;99616.72;;;11.87;61.75
1480;BME280;732;51.698;4.886;2023-03-13T11:02:22;99623.38;;;12.03;61.95
1480;BME280;732;51.698;4.886;2023-03-13T11:04:53;99602.47;;;12.05;62.02
1480;BME280;732;51.698;4.886;2023-03-13T11:07:29;99628.75;;;12.40;61.18
1480;BME280;732;51.698;4.886;2023-03-13T11:10:05;99626.66;;;12.42;60.95
1480;BME280;732;51.698;4.886;2023-03-13T11:12:44;99599.00;;;12.53;60.88
1480;BME280;732;51.698;4.886;2023-03-13T11:15:15;99584.78;;;12.64;60.50
1480;BME280;732;51.698;4.886;2023-03-13T11:17:48;99607.66;;;12.74;58.79
1480;BME280;732;51.698;4.886;2023-03-13T11:20:24;99618.69;;;12.84;58.38
1480;BME280;732;51.698;4.886;2023-03-13T11:23:08;99605.81;;;12.86;55.33
1480;BME280;732;51.698;4.886;2023-03-13T11:25:45;99662.06;;;13.25;56.08
1480;BME280;732;51.698;4.886;2023-03-13T11:28:33;99610.03;;;13.24;54.48
1480;BME280;732;51.698;4.886;2023-03-13T11:31:10;99596.28;;;13.56;53.51
1480;BME280;732;51.698;4.886;2023-03-13T11:33:47;99611.72;;;13.37;52.09
1480;BME280;732;51.698;4.886;2023-03-13T11:36:31;99603.00;;;13.23;53.34
1480;BME280;732;51.698;4.886;2023-03-13T11:39:41;99616.19;;;13.43;52.87
1480;BME280;732;51.698;4.886;2023-03-13T11:45:19;99580.41;;;13.12;51.03
1480;BME280;732;51.698;4.886;2023-03-13T11:47:55;99562.00;;;13.09;50.82
1480;BME280;732;51.698;4.886;2023-03-13T11:50:36;99582.41;;;13.17;50.34
1480;BME280;732;51.698;4.886;2023-03-13T11:53:24;99587.69;;;13.36;49.63
1480;BME280;732;51.698;4.886;2023-03-13T11:56:07;99572.00;;;13.44;48.42
1480;BME280;732;51.698;4.886;2023-03-13T11:58:59;99579.72;;;13.29;48.34
1480;BME280;732;51.698;4.886;2023-03-13T12:01:34;99549.28;;;13.28;49.33
1480;BME280;732;51.698;4.886;2023-03-13T12:04:12;99548.94;;;13.37;49.65
1480;BME280;732;51.698;4.886;2023-03-13T12:06:49;99576.59;;;13.56;49.08
1480;BME280;732;51.698;4.886;2023-03-13T12:09:26;99560.75;;;13.36;49.66
1480;BME280;732;51.698;4.886;2023-03-13T12:12:02;99539.56;;;13.39;49.73
1480;BME280;732;51.698;4.886;2023-03-13T12:14:37;99512.38;;;13.29;50.28
1480;BME280;732;51.698;4.886;2023-03-13T12:17:11;99533.97;;;13.41;50.95
1480;BME280;732;51.698;4.886;2023-03-13T12:19:49;99560.06;;;13.52;49.85
1480;BME280;732;51.698;4.886;2023-03-13T12:22:22;99530.75;;;13.20;50.00
1480;BME280;732;51.698;4.886;2023-03-13T12:24:59;99549.41;;;13.45;51.54
1480;BME280;732;51.698;4.886;2023-03-13T12:27:38;99546.81;;;13.74;51.64
1480;BME280;732;51.698;4.886;2023-03-13T12:30:23;99542.59;;;13.78;49.96
1480;BME280;732;51.698;4.886;2023-03-13T12:33:02;99518.00;;;13.75;50.55
1480;BME280;732;51.698;4.886;2023-03-13T12:35:31;99512.69;;;14.04;49.80
1480;BME280;732;51.698;4.886;2023-03-13T12:38:07;99548.69;;;13.86;50.45
1480;BME280;732;51.698;4.886;2023-03-13T12:40:44;99543.41;;;13.91;51.07
1480;BME280;732;51.698;4.886;2023-03-13T12:43:18;99474.31;;;13.25;50.91
1480;BME280;732;51.698;4.886;2023-03-13T12:46:10;99528.06;;;13.20;52.81
1480;BME280;732;51.698;4.886;2023-03-13T12:48:59;99504.53;;;13.04;52.53
1480;BME280;732;51.698;4.886;2023-03-13T12:51:43;99489.78;;;13.30;51.63
1480;BME280;732;51.698;4.886;2023-03-13T12:54:54;99512.13;;;13.54;50.82
1480;BME280;732;51.698;4.886;2023-03-13T13:00:54;99483.31;;;13.67;50.11
1480;BME280;732;51.698;4.886;2023-03-13T13:03:30;99498.06;;;13.64;49.51
1480;BME280;732;51.698;4.886;2023-03-13T13:06:09;99492.53;;;13.83;49.67
1480;BME280;732;51.698;4.886;2023-03-13T13:08:40;99524.66;;;14.37;48.24
1480;BME280;732;51.698;4.886;2023-03-13T13:11:45;99496.56;;;14.21;45.80
1480;BME280;732;51.698;4.886;2023-03-13T13:15:04;99540.81;;;13.84;46.71
1480;BME280;732;51.698;4.886;2023-03-13T13:23:37;99503.00;;;13.55;48.59
1480;BME280;732;51.698;4.886;2023-03-13T13:26:49;99507.81;;;13.65;46.92
1480;BME280;732;51.698;4.886;2023-03-13T13:29:57;99543.75;;;13.83;46.92
1480;BME280;732;51.698;4.886;2023-03-13T13:32:44;99500.66;;;13.71;47.22
1480;BME280;732;51.698;4.886;2023-03-13T13:35:35;99533.69;;;13.78;46.93
1480;BME280;732;51.698;4.886;2023-03-13T13:38:30;99538.50;;;13.76;47.57
1480;BME280;732;51.698;4.886;2023-03-13T13:41:23;99531.81;;;13.78;47.29
1480;BME280;732;51.698;4.886;2023-03-13T13:44:26;99500.53;;;13.66;47.74
1480;BME280;732;51.698;4.886;2023-03-13T13:46:57;99525.94;;;13.93;46.48
1480;BME280;732;51.698;4.886;2023-03-13T13:49:37;99457.78;;;13.45;48.05
1480;BME280;732;51.698;4.886;2023-03-13T13:52:40;99483.19;;;13.61;47.60
1480;BME280;732;51.698;4.886;2023-03-13T13:55:42;99517.47;;;14.02;47.58
1480;BME280;732;51.698;4.886;2023-03-13T13:58:16;99516.59;;;13.72;48.67
1480;BME280;732;51.698;4.886;2023-03-13T14:00:50;99499.72;;;13.53;47.97
1480;BME280;732;51.698;4.886;2023-03-13T14:03:22;99443.53;;;12.97;48.09
1480;BME280;732;51.698;4.886;2023-03-13T14:05:56;99472.00;;;13.17;48.87
1480;BME280;732;51.698;4.886;2023-03-13T14:08:30;99481.00;;;13.23;49.28
1480;BME280;732;51.698;4.886;2023-03-13T14:11:14;99459.31;;;13.41;48.96
1480;BME280;732;51.698;4.886;2023-03-13T14:14:12;99445.63;;;13.31;47.74
1480;BME280;732;51.698;4.886;2023-03-13T14:16:43;99488.94;;;13.29;48.95
1480;BME280;732;51.698;4.886;2023-03-13T14:19:29;99434.41;;;13.10;48.35
1480;BME280;732;51.698;4.886;2023-03-13T14:22:04;99460.47;;;13.45;49.40
1480;BME280;732;51.698;4.886;2023-03-13T14:24:35;99469.25;;;13.53;49.27
1480;BME280;732;51.698;4.886;2023-03-13T14:27:15;99467.06;;;13.50;48.69
1480;BME280;732;51.698;4.886;2023-03-13T14:30:00;99454.84;;;13.59;48.91
1480;BME280;732;51.698;4.886;2023-03-13T14:32:29;99408.00;;;13.48;49.09
1480;BME280;732;51.698;4.886;2023-03-13T14:34:57;99429.84;;;13.75;48.57